Terminal Aerodrome Forecast
Issued by NWS Cleveland, OH

Home | Current Version | Previous Version | Graphics & Text | Print | Product List | Glossary On
Versions: 1 2 3 4 5 6 7 8 9 10 11 12 13 14 15 16 17 18 19 20 21 22 23 24 25 26 27 28 29 30
000
FTUS41 KCLE 180500
TAFERI
TAF
KERI 180539Z 1806/1906 22020G30KT 5SM -SHSN BLSN SCT012 OVC035
      TEMPO 1809/1813 1SM -SHSN BLSN BKN012
     FM181300 24020G30KT 3/4SM -SN BLSN VV008=

USA.gov is the U.S. government's official web portal to all federal, state and local government web resources and services.